createdAt,value
2023-06-29T00:00:13.830Z,54.46
2023-06-29T00:03:16.095Z,54.88
2023-06-29T00:06:17.966Z,55.57
2023-06-29T00:09:20.516Z,56.06
2023-06-29T00:12:22.114Z,55.95
2023-06-29T00:15:23.783Z,56.23
2023-06-29T00:18:27.817Z,55.66
2023-06-29T00:21:29.591Z,58.66
2023-06-29T00:24:31.390Z,60.24
2023-06-29T00:27:33.158Z,60.91
2023-06-29T00:30:34.793Z,60.52
2023-06-29T00:33:37.327Z,60.25
2023-06-29T00:36:38.993Z,60.47
2023-06-29T00:39:40.703Z,58.43
2023-06-29T00:42:42.434Z,57.39
2023-06-29T00:45:44.453Z,59.78
2023-06-29T00:48:46.292Z,58.96
2023-06-29T00:51:51.474Z,57.85
2023-06-29T00:54:56.020Z,57.67
2023-06-29T00:57:57.689Z,57.65
2023-06-29T01:00:59.379Z,57.69
2023-06-29T01:04:01.368Z,57.73
2023-06-29T01:07:10.879Z,57.59
2023-06-29T01:10:14.543Z,57.62
2023-06-29T01:13:18.610Z,57.40
2023-06-29T01:16:21.460Z,57.42
2023-06-29T01:19:26.818Z,59.00
2023-06-29T01:22:30.965Z,59.86
2023-06-29T01:25:34.971Z,60.70
2023-06-29T01:28:36.637Z,60.63
2023-06-29T01:31:38.397Z,61.56
2023-06-29T01:34:40.150Z,61.43
2023-06-29T01:37:48.054Z,60.83
2023-06-29T01:40:50.600Z,60.61
2023-06-29T01:43:53.002Z,60.77
2023-06-29T01:46:55.749Z,60.78
2023-06-29T01:49:57.693Z,60.96
2023-06-29T01:52:59.637Z,60.85
2023-06-29T01:56:01.288Z,60.82
2023-06-29T01:59:03.002Z,61.12
2023-06-29T02:02:04.818Z,61.90
2023-06-29T02:05:07.109Z,61.96
2023-06-29T02:08:08.838Z,61.91
2023-06-29T02:11:10.670Z,62.25
2023-06-29T02:14:12.305Z,62.72
2023-06-29T02:17:13.994Z,63.58
2023-06-29T02:20:15.712Z,64.14
2023-06-29T02:23:17.638Z,64.49
2023-06-29T02:26:19.290Z,65.04
2023-06-29T02:29:22.069Z,65.18
2023-06-29T02:32:23.757Z,65.41
2023-06-29T02:35:25.474Z,65.90
2023-06-29T02:38:27.160Z,65.71
2023-06-29T02:41:28.955Z,66.19
2023-06-29T02:44:30.606Z,66.69
2023-06-29T02:47:32.584Z,67.72
2023-06-29T02:50:34.294Z,68.13
2023-06-29T02:53:35.964Z,68.94
2023-06-29T02:56:37.782Z,68.88
2023-06-29T02:59:39.636Z,68.85
2023-06-29T03:02:41.811Z,68.46
2023-06-29T03:05:43.626Z,68.54
2023-06-29T03:08:45.789Z,68.99
2023-06-29T03:11:47.626Z,68.99
2023-06-29T03:14:49.311Z,68.88
2023-06-29T03:17:51.007Z,69.23
2023-06-29T03:20:52.684Z,69.40
2023-06-29T03:23:54.751Z,69.31
2023-06-29T03:26:56.458Z,69.79
2023-06-29T03:29:58.124Z,69.91
2023-06-29T03:32:59.847Z,70.17
2023-06-29T03:36:01.564Z,69.37
2023-06-29T03:39:03.365Z,69.06
2023-06-29T03:42:05.471Z,68.20
2023-06-29T03:45:07.916Z,68.67
2023-06-29T03:48:09.637Z,67.85
2023-06-29T03:51:11.477Z,67.34
2023-06-29T03:54:13.229Z,66.22
2023-06-29T03:57:14.863Z,64.25
2023-06-29T04:00:16.884Z,61.93
2023-06-29T04:03:18.651Z,62.52
2023-06-29T04:06:20.530Z,61.65
2023-06-29T04:09:22.210Z,59.91
2023-06-29T04:12:24.339Z,58.97
2023-06-29T04:15:26.211Z,58.21
2023-06-29T04:18:27.911Z,57.18
2023-06-29T04:21:29.658Z,56.71
2023-06-29T04:24:31.283Z,56.12
2023-06-29T04:27:34.100Z,56.04
2023-06-29T04:30:36.306Z,55.80
2023-06-29T04:33:38.193Z,55.80
2023-06-29T04:36:39.845Z,56.10
2023-06-29T04:39:41.508Z,56.28
2023-06-29T04:42:43.290Z,55.96
2023-06-29T04:45:45.195Z,55.66
2023-06-29T04:48:47.038Z,55.63
2023-06-29T04:51:49.083Z,55.75
2023-06-29T04:54:50.751Z,55.41
2023-06-29T04:57:53.364Z,55.25
2023-06-29T05:00:55.866Z,55.48
2023-06-29T05:03:59.278Z,54.69
2023-06-29T05:07:02.335Z,55.11
2023-06-29T05:10:04.459Z,54.94
2023-06-29T05:13:06.730Z,54.35
2023-06-29T05:16:08.489Z,53.99
2023-06-29T05:19:10.164Z,54.45
2023-06-29T05:22:12.693Z,54.64
2023-06-29T05:25:14.423Z,54.23
2023-06-29T05:28:16.260Z,54.37
2023-06-29T05:31:17.941Z,54.60
2023-06-29T05:34:19.674Z,54.61
2023-06-29T05:37:21.870Z,54.37
2023-06-29T05:40:23.633Z,54.16
2023-06-29T05:43:25.519Z,53.78
2023-06-29T05:46:27.227Z,53.55
2023-06-29T05:49:29.202Z,53.72
2023-06-29T05:52:30.881Z,53.30
2023-06-29T05:55:32.673Z,53.30
2023-06-29T05:58:34.428Z,53.23
2023-06-29T06:01:36.135Z,53.53
2023-06-29T06:04:37.901Z,52.77
2023-06-29T06:07:39.938Z,52.86
2023-06-29T06:10:41.946Z,52.42
2023-06-29T06:13:43.894Z,52.41
2023-06-29T06:16:48.130Z,51.91
2023-06-29T06:19:52.389Z,52.17
2023-06-29T06:22:54.181Z,52.14
2023-06-29T06:25:57.082Z,51.73
2023-06-29T06:28:59.075Z,51.94
2023-06-29T06:32:01.115Z,51.79
2023-06-29T06:35:03.168Z,51.43
2023-06-29T06:38:06.798Z,51.12
2023-06-29T06:41:08.780Z,50.69
2023-06-29T06:44:11.107Z,50.47
2023-06-29T06:47:13.676Z,50.35
2023-06-29T06:50:17.719Z,50.16
2023-06-29T06:53:19.382Z,49.83
2023-06-29T06:56:21.955Z,49.74
2023-06-29T06:59:23.718Z,50.19
2023-06-29T07:02:25.633Z,49.88
2023-06-29T07:05:27.632Z,49.88
2023-06-29T07:08:29.307Z,49.69
2023-06-29T07:11:31.198Z,49.75
2023-06-29T07:14:35.298Z,49.61
2023-06-29T07:17:37.854Z,50.17
2023-06-29T07:27:04.590Z,49.27
2023-06-29T07:30:19.105Z,48.99
2023-06-29T07:33:23.079Z,48.60
2023-06-29T07:36:26.482Z,49.00
2023-06-29T07:39:28.494Z,49.42
2023-06-29T07:42:39.628Z,49.04
2023-06-29T07:45:42.529Z,48.63
2023-06-29T07:48:44.960Z,48.00
2023-06-29T07:51:46.802Z,47.47
2023-06-29T07:54:48.523Z,45.97
2023-06-29T08:01:09.373Z,33.03
2023-06-29T08:04:11.379Z,29.71
2023-06-29T08:07:13.271Z,27.59
2023-06-29T08:10:16.691Z,26.39
2023-06-29T08:13:29.277Z,25.13
2023-06-29T08:16:32.009Z,23.95
2023-06-29T08:19:33.762Z,23.32
2023-06-29T08:22:49.660Z,23.27
2023-06-29T08:25:51.359Z,22.30
2023-06-29T08:28:53.200Z,21.84
2023-06-29T08:31:55.005Z,22.74
2023-06-29T08:34:57.342Z,22.37
2023-06-29T08:38:00.257Z,23.43
2023-06-29T08:41:05.226Z,22.53
2023-06-29T08:44:06.944Z,21.93
2023-06-29T08:47:09.358Z,21.53
2023-06-29T08:50:11.878Z,20.67
2023-06-29T08:53:14.490Z,20.44
2023-06-29T08:56:17.394Z,19.77
2023-06-29T08:59:20.303Z,19.72
2023-06-29T09:02:22.280Z,19.63
2023-06-29T09:05:24.483Z,26.98
2023-06-29T09:08:27.017Z,29.26
2023-06-29T09:11:28.814Z,31.42
2023-06-29T09:14:31.447Z,31.82
2023-06-29T09:17:33.440Z,35.37
2023-06-29T09:20:36.968Z,36.85
2023-06-29T09:23:43.762Z,28.50
2023-06-29T09:26:51.808Z,25.29
2023-06-29T09:29:54.406Z,23.24
2023-06-29T09:32:56.435Z,23.80
2023-06-29T09:36:07.168Z,25.78
2023-06-29T09:39:12.258Z,26.07
2023-06-29T09:42:15.348Z,24.82
2023-06-29T09:45:24.854Z,26.62
2023-06-29T09:51:34.206Z,24.15
2023-06-29T09:54:36.265Z,27.68
2023-06-29T09:57:41.480Z,24.30
2023-06-29T10:00:45.011Z,28.74
2023-06-29T10:03:46.885Z,25.19
2023-06-29T10:07:06.654Z,25.01
2023-06-29T10:10:12.002Z,27.98
2023-06-29T10:13:17.547Z,30.61
2023-06-29T10:16:21.736Z,33.21
2023-06-29T10:19:27.252Z,30.21
2023-06-29T10:22:30.235Z,25.97
2023-06-29T10:25:35.096Z,30.14
2023-06-29T10:28:38.066Z,32.67
2023-06-29T10:31:48.613Z,33.69
2023-06-29T10:35:01.164Z,35.45
2023-06-29T10:38:11.056Z,36.53
2023-06-29T10:41:29.891Z,37.56
2023-06-29T10:44:35.321Z,38.31
2023-06-29T10:47:37.038Z,37.36
2023-06-29T10:50:42.092Z,36.30
2023-06-29T10:53:49.578Z,36.73
2023-06-29T10:57:01.695Z,33.89
2023-06-29T11:00:04.630Z,36.55
2023-06-29T11:03:07.368Z,37.52
2023-06-29T11:06:09.157Z,32.43
2023-06-29T11:09:12.783Z,32.86
2023-06-29T11:12:17.650Z,35.33
2023-06-29T11:15:21.055Z,36.67
2023-06-29T11:18:23.929Z,37.92
2023-06-29T11:21:26.966Z,37.43
2023-06-29T11:24:28.667Z,37.67
2023-06-29T11:27:30.445Z,38.53
2023-06-29T11:30:32.330Z,38.50
2023-06-29T11:40:01.503Z,36.84
2023-06-29T11:43:03.274Z,36.97
2023-06-29T11:46:05.430Z,35.51
2023-06-29T11:49:07.380Z,35.52
2023-06-29T11:52:09.366Z,35.29
2023-06-29T11:55:13.955Z,35.96
2023-06-29T11:58:15.973Z,37.25
2023-06-29T12:01:18.227Z,36.60
2023-06-29T12:04:21.433Z,35.39
2023-06-29T12:07:35.298Z,35.12
2023-06-29T12:10:39.090Z,35.79
2023-06-29T12:13:46.263Z,36.08
2023-06-29T12:20:19.513Z,33.76
2023-06-29T12:23:25.125Z,32.66
2023-06-29T12:26:26.829Z,33.02
2023-06-29T12:29:31.768Z,34.37
2023-06-29T12:32:36.097Z,34.13
2023-06-29T12:35:38.362Z,33.72
2023-06-29T12:38:41.023Z,32.70
2023-06-29T12:41:42.721Z,34.10
2023-06-29T12:44:44.411Z,35.02
2023-06-29T12:47:46.527Z,33.74
2023-06-29T12:50:49.194Z,34.37
2023-06-29T12:53:52.146Z,35.01
2023-06-29T12:56:53.929Z,34.72
2023-06-29T13:00:07.329Z,34.54
2023-06-29T13:03:09.254Z,33.82
2023-06-29T13:06:11.097Z,34.21
2023-06-29T13:09:13.216Z,34.06
2023-06-29T13:12:15.554Z,33.29
2023-06-29T13:15:17.349Z,33.16
2023-06-29T13:18:19.199Z,34.11
2023-06-29T13:21:21.224Z,34.47
2023-06-29T13:24:23.472Z,33.54
2023-06-29T13:27:25.213Z,32.29
2023-06-29T13:30:27.520Z,31.72
2023-06-29T13:33:29.882Z,32.46
2023-06-29T13:36:32.914Z,33.44
2023-06-29T13:39:34.726Z,34.31
2023-06-29T13:42:36.711Z,34.71
2023-06-29T13:45:38.487Z,33.69
2023-06-29T13:48:40.650Z,32.65
2023-06-29T13:51:42.770Z,32.35
2023-06-29T13:54:44.888Z,32.18
2023-06-29T13:57:47.153Z,33.74
2023-06-29T14:00:48.788Z,33.92
2023-06-29T14:03:50.622Z,32.99
2023-06-29T14:06:52.808Z,33.50
2023-06-29T14:09:54.940Z,32.11
2023-06-29T14:12:57.082Z,32.29
2023-06-29T14:15:59.530Z,30.66
2023-06-29T14:19:01.287Z,30.50
2023-06-29T14:22:03.551Z,30.12
2023-06-29T14:25:07.236Z,31.98
2023-06-29T14:28:09.178Z,32.55
2023-06-29T14:31:11.453Z,31.76
2023-06-29T14:34:13.407Z,31.89
2023-06-29T14:37:16.266Z,32.21
2023-06-29T14:40:17.992Z,31.67
2023-06-29T14:43:22.490Z,31.21
2023-06-29T14:46:34.015Z,31.44
2023-06-29T14:49:35.726Z,30.68
2023-06-29T14:52:39.718Z,30.31
2023-06-29T14:55:44.632Z,30.27
2023-06-29T14:58:47.613Z,30.04
2023-06-29T15:01:49.452Z,29.92
2023-06-29T15:04:53.091Z,30.07
2023-06-29T15:07:55.091Z,29.97
2023-06-29T15:10:56.739Z,29.21
2023-06-29T15:13:58.414Z,30.88
2023-06-29T15:17:00.093Z,32.14
2023-06-29T15:20:01.819Z,30.26
2023-06-29T15:23:03.510Z,29.76
2023-06-29T15:26:05.583Z,29.63
2023-06-29T15:29:07.199Z,30.08
2023-06-29T15:32:11.802Z,30.04
2023-06-29T15:35:13.601Z,31.26
2023-06-29T15:38:15.254Z,32.40
2023-06-29T15:41:17.296Z,32.69
2023-06-29T15:44:19.168Z,32.52
2023-06-29T15:47:20.940Z,32.56
2023-06-29T15:50:22.581Z,32.19
2023-06-29T15:53:24.241Z,32.71
2023-06-29T15:56:26.512Z,32.85
2023-06-29T15:59:28.101Z,32.83
2023-06-29T16:02:29.935Z,33.02
2023-06-29T16:05:33.072Z,33.18
2023-06-29T16:08:34.925Z,32.89
2023-06-29T16:11:36.584Z,33.00
2023-06-29T16:14:38.306Z,33.58
2023-06-29T16:17:40.113Z,33.58
2023-06-29T16:20:42.180Z,34.29
2023-06-29T16:23:43.841Z,34.77
2023-06-29T16:26:47.896Z,35.34
2023-06-29T16:29:49.622Z,35.93
2023-06-29T16:32:51.698Z,36.35
2023-06-29T16:35:53.726Z,36.77
2023-06-29T16:38:55.482Z,37.25
2023-06-29T16:41:57.433Z,37.39
2023-06-29T16:44:59.678Z,37.75
2023-06-29T16:48:01.311Z,38.00
2023-06-29T16:51:03.110Z,38.24
2023-06-29T16:54:04.775Z,38.08
2023-06-29T16:57:06.982Z,38.13
2023-06-29T17:00:09.515Z,38.78
2023-06-29T17:03:11.950Z,38.68
2023-06-29T17:06:13.655Z,38.53
2023-06-29T17:09:15.470Z,38.74
2023-06-29T17:12:17.503Z,39.12
2023-06-29T17:15:20.307Z,39.14
2023-06-29T17:18:22.664Z,39.23
2023-06-29T17:21:24.440Z,39.28
2023-06-29T17:24:26.790Z,39.26
2023-06-29T17:27:28.601Z,39.02
2023-06-29T17:30:30.323Z,39.25
2023-06-29T17:33:44.826Z,39.75
2023-06-29T17:36:53.527Z,40.32
2023-06-29T17:39:55.169Z,40.78
2023-06-29T17:42:56.849Z,40.92
2023-06-29T17:45:58.623Z,40.87
2023-06-29T17:49:00.274Z,40.99
2023-06-29T17:52:01.872Z,41.07
2023-06-29T17:55:04.454Z,41.43
2023-06-29T17:58:06.642Z,41.77
2023-06-29T18:01:08.585Z,42.24
2023-06-29T18:04:10.573Z,42.58
2023-06-29T18:07:12.664Z,42.80
2023-06-29T18:10:14.372Z,43.19
2023-06-29T18:13:19.186Z,43.70
2023-06-29T18:16:20.953Z,43.94
2023-06-29T18:19:22.750Z,44.20
2023-06-29T18:22:24.433Z,44.66
2023-06-29T18:25:26.330Z,44.97
2023-06-29T18:28:28.416Z,45.37
2023-06-29T18:31:30.305Z,45.77
2023-06-29T18:34:32.203Z,45.96
2023-06-29T18:37:33.960Z,46.25
2023-06-29T18:40:36.422Z,46.45
2023-06-29T18:43:38.214Z,46.64
2023-06-29T18:46:41.249Z,46.65
2023-06-29T18:49:51.289Z,47.15
2023-06-29T18:52:54.318Z,46.98
2023-06-29T18:55:56.980Z,47.27
2023-06-29T18:58:58.726Z,47.49
2023-06-29T19:02:01.086Z,47.74
2023-06-29T19:05:02.897Z,48.20
2023-06-29T19:08:05.240Z,48.46
2023-06-29T19:11:06.905Z,48.74
2023-06-29T19:14:08.526Z,49.02
2023-06-29T19:17:10.549Z,49.55
2023-06-29T19:20:12.682Z,49.88
2023-06-29T19:23:14.359Z,50.18
2023-06-29T19:26:16.420Z,50.42
2023-06-29T19:29:18.264Z,50.71
2023-06-29T19:32:20.844Z,51.18
2023-06-29T19:35:22.934Z,51.31
2023-06-29T19:38:24.660Z,51.50
2023-06-29T19:41:26.251Z,51.72
2023-06-29T19:44:28.022Z,51.84
2023-06-29T19:47:29.793Z,52.04
2023-06-29T19:50:31.565Z,52.33
2023-06-29T19:53:33.292Z,52.55
2023-06-29T19:56:34.972Z,52.68
2023-06-29T19:59:36.825Z,52.75
2023-06-29T20:02:38.896Z,53.08
2023-06-29T20:05:41.493Z,53.31
2023-06-29T20:08:44.480Z,53.29
2023-06-29T20:11:46.271Z,53.45
2023-06-29T20:14:48.095Z,53.64
2023-06-29T20:17:50.174Z,53.70
2023-06-29T20:20:52.652Z,53.76
2023-06-29T20:23:54.469Z,53.75
2023-06-29T20:26:56.487Z,54.07
2023-06-29T20:29:58.592Z,54.10
2023-06-29T20:33:00.409Z,54.07
2023-06-29T20:36:02.525Z,54.22
2023-06-29T20:39:04.279Z,54.07
2023-06-29T20:42:06.379Z,54.37
2023-06-29T20:45:09.326Z,54.62
2023-06-29T20:48:11.719Z,54.58
2023-06-29T20:51:18.141Z,54.85
2023-06-29T20:54:20.236Z,54.81
2023-06-29T20:57:22.816Z,55.04
2023-06-29T21:00:24.702Z,56.48
2023-06-29T21:03:26.982Z,56.63
2023-06-29T21:06:28.946Z,57.01
2023-06-29T21:09:31.120Z,56.94
2023-06-29T21:12:33.379Z,56.87
2023-06-29T21:15:35.112Z,56.59
2023-06-29T21:18:37.129Z,56.92
2023-06-29T21:21:39.534Z,57.33
2023-06-29T21:24:41.773Z,57.46
2023-06-29T21:27:43.653Z,57.04
2023-06-29T21:30:45.424Z,56.22
2023-06-29T21:33:47.489Z,56.55
2023-06-29T21:36:49.798Z,56.69
2023-06-29T21:39:51.497Z,56.28
2023-06-29T21:42:53.249Z,55.91
2023-06-29T21:45:54.905Z,55.79
2023-06-29T21:51:58.241Z,55.96
2023-06-29T21:54:59.925Z,56.34
2023-06-29T21:58:02.268Z,57.08
2023-06-29T22:01:03.985Z,57.59
2023-06-29T22:04:05.880Z,57.38
2023-06-29T22:10:13.660Z,57.43
2023-06-29T22:13:15.681Z,57.77
2023-06-29T22:16:17.526Z,57.81
2023-06-29T22:19:19.368Z,58.00
2023-06-29T22:22:21.000Z,57.97
2023-06-29T22:25:22.804Z,58.52
2023-06-29T22:28:25.013Z,58.76
2023-06-29T22:31:27.992Z,58.91
2023-06-29T22:34:29.820Z,59.19
2023-06-29T22:37:31.499Z,59.60
2023-06-29T22:40:33.541Z,59.86
2023-06-29T22:43:35.485Z,60.13
2023-06-29T22:46:37.605Z,60.28
2023-06-29T22:49:42.258Z,60.16
2023-06-29T22:52:44.704Z,60.00
2023-06-29T22:55:46.655Z,60.17
2023-06-29T22:59:06.167Z,60.16
2023-06-29T23:02:08.156Z,60.12
2023-06-29T23:05:10.278Z,60.11
2023-06-29T23:08:12.091Z,60.37
2023-06-29T23:11:13.771Z,60.44
2023-06-29T23:14:15.686Z,60.40
2023-06-29T23:17:17.984Z,60.66
2023-06-29T23:20:19.760Z,60.94
2023-06-29T23:23:21.451Z,61.19
2023-06-29T23:26:24.068Z,61.33
2023-06-29T23:29:25.815Z,61.29
2023-06-29T23:32:27.950Z,61.64
2023-06-29T23:35:29.649Z,61.89
2023-06-29T23:38:31.307Z,62.30
2023-06-29T23:41:32.971Z,62.63
2023-06-29T23:44:37.609Z,62.85
2023-06-29T23:47:39.929Z,63.43
2023-06-29T23:50:41.952Z,63.80
2023-06-29T23:53:43.567Z,64.12
2023-06-29T23:56:45.258Z,64.60
2023-06-29T23:59:47.729Z,64.82
